createdAt,value
2023-05-05T00:00:39.316Z,17.62
2023-05-05T00:01:18.276Z,17.63
2023-05-05T00:02:18.245Z,17.62
2023-05-05T00:03:18.219Z,17.57
2023-05-05T00:04:18.246Z,17.62
2023-05-05T00:05:18.062Z,17.54
2023-05-05T00:06:38.996Z,17.55
2023-05-05T00:07:17.956Z,17.57
2023-05-05T00:08:17.903Z,17.54
2023-05-05T00:09:17.869Z,17.55
2023-05-05T00:10:17.809Z,17.62
2023-05-05T00:11:17.746Z,17.55
2023-05-05T00:12:38.705Z,17.54
2023-05-05T00:13:18.304Z,17.48
2023-05-05T00:14:17.592Z,17.59
2023-05-05T00:15:17.538Z,17.54
2023-05-05T00:16:17.485Z,17.53
2023-05-05T00:17:17.512Z,17.50
2023-05-05T00:18:38.366Z,17.55
2023-05-05T00:19:17.333Z,17.51
2023-05-05T00:20:17.283Z,17.54
2023-05-05T00:21:17.221Z,17.57
2023-05-05T00:22:17.167Z,17.57
2023-05-05T00:23:17.143Z,17.50
2023-05-05T00:24:38.050Z,17.57
2023-05-05T00:25:17.009Z,17.47
2023-05-05T00:26:16.956Z,17.55
2023-05-05T00:27:16.905Z,17.53
2023-05-05T00:28:16.862Z,17.54
2023-05-05T00:29:16.799Z,17.57
2023-05-05T00:30:37.736Z,17.51
2023-05-05T00:31:16.729Z,17.54
2023-05-05T00:32:16.657Z,17.53
2023-05-05T00:33:16.594Z,17.62
2023-05-05T00:34:16.541Z,17.55
2023-05-05T00:35:16.485Z,17.53
2023-05-05T00:36:37.440Z,17.53
2023-05-05T00:37:16.379Z,17.46
2023-05-05T00:38:16.340Z,17.53
2023-05-05T00:39:16.276Z,17.55
2023-05-05T00:40:16.220Z,17.53
2023-05-05T00:41:16.176Z,17.47
2023-05-05T00:42:37.116Z,17.46
2023-05-05T00:43:16.064Z,17.54
2023-05-05T00:44:16.011Z,17.57
2023-05-05T00:45:15.974Z,17.43
2023-05-05T00:46:15.918Z,17.50
2023-05-05T00:47:15.872Z,17.53
2023-05-05T00:48:36.802Z,17.50
2023-05-05T00:49:15.767Z,17.47
2023-05-05T00:50:15.712Z,17.44
2023-05-05T00:51:15.652Z,17.47
2023-05-05T00:52:15.600Z,17.51
2023-05-05T00:53:15.541Z,17.44
2023-05-05T00:54:36.477Z,17.51
2023-05-05T00:55:15.435Z,17.47
2023-05-05T00:56:15.386Z,17.46
2023-05-05T00:57:15.339Z,17.47
2023-05-05T00:58:15.297Z,17.47
2023-05-05T00:59:15.235Z,17.43
2023-05-05T01:00:36.158Z,17.46
2023-05-05T01:01:15.179Z,17.51
2023-05-05T01:02:15.070Z,17.44
2023-05-05T01:03:15.076Z,17.48
2023-05-05T01:04:14.960Z,17.41
2023-05-05T01:05:14.913Z,17.46
2023-05-05T01:06:35.849Z,17.43
2023-05-05T01:07:14.815Z,17.36
2023-05-05T01:08:14.753Z,17.38
2023-05-05T01:09:14.696Z,17.40
2023-05-05T01:10:20.284Z,17.40
2023-05-05T01:11:14.593Z,17.29
2023-05-05T01:12:35.554Z,17.38
2023-05-05T01:13:14.556Z,17.30
2023-05-05T01:14:14.450Z,17.38
2023-05-05T01:15:14.381Z,17.29
2023-05-05T01:16:14.396Z,17.32
2023-05-05T01:17:14.280Z,17.30
2023-05-05T01:18:35.213Z,17.40
2023-05-05T01:19:14.165Z,17.33
2023-05-05T01:20:14.112Z,17.30
2023-05-05T01:21:14.067Z,17.33
2023-05-05T01:22:14.024Z,17.41
2023-05-05T01:23:13.954Z,17.36
2023-05-05T01:24:34.902Z,17.41
2023-05-05T01:25:13.866Z,17.36
2023-05-05T01:26:13.801Z,17.35
2023-05-05T01:27:13.748Z,17.36
2023-05-05T01:28:13.716Z,17.46
2023-05-05T01:29:13.640Z,17.32
2023-05-05T01:30:34.603Z,17.40
2023-05-05T01:31:13.566Z,17.35
2023-05-05T01:32:13.484Z,17.41
2023-05-05T01:33:13.435Z,17.29
2023-05-05T01:34:13.376Z,17.36
2023-05-05T01:35:13.326Z,17.41
2023-05-05T01:36:34.265Z,17.40
2023-05-05T01:37:13.223Z,17.44
2023-05-05T01:38:13.169Z,17.35
2023-05-05T01:39:13.110Z,17.38
2023-05-05T01:40:13.098Z,17.35
2023-05-05T01:41:13.012Z,17.30
2023-05-05T01:42:33.946Z,17.33
2023-05-05T01:43:12.903Z,17.44
2023-05-05T01:44:12.853Z,17.36
2023-05-05T01:45:12.800Z,17.35
2023-05-05T01:46:12.895Z,17.36
2023-05-05T01:47:12.688Z,17.35
2023-05-05T01:48:33.626Z,17.28
2023-05-05T01:49:12.584Z,17.32
2023-05-05T01:50:12.528Z,17.33
2023-05-05T01:51:12.487Z,17.29
2023-05-05T01:52:12.416Z,17.35
2023-05-05T01:53:12.375Z,17.35
2023-05-05T01:54:33.307Z,17.30
2023-05-05T01:55:12.262Z,17.29
2023-05-05T01:56:12.229Z,17.36
2023-05-05T01:57:12.156Z,17.35
2023-05-05T01:58:12.103Z,17.30
2023-05-05T01:59:12.050Z,17.33
2023-05-05T02:00:32.994Z,17.30
2023-05-05T02:01:11.992Z,17.33
2023-05-05T02:02:12.034Z,17.38
2023-05-05T02:03:11.922Z,17.38
2023-05-05T02:04:11.789Z,17.30
2023-05-05T02:05:11.738Z,17.35
2023-05-05T02:06:32.681Z,17.36
2023-05-05T02:07:11.633Z,17.29
2023-05-05T02:08:11.575Z,17.30
2023-05-05T02:09:11.527Z,17.28
2023-05-05T02:10:11.470Z,17.28
2023-05-05T02:11:11.426Z,17.29
2023-05-05T02:12:32.402Z,17.23
2023-05-05T02:13:11.444Z,17.26
2023-05-05T02:14:11.262Z,17.23
2023-05-05T02:15:11.249Z,17.32
2023-05-05T02:16:11.216Z,17.29
2023-05-05T02:17:11.102Z,17.23
2023-05-05T02:18:32.045Z,17.23
2023-05-05T02:19:10.995Z,17.25
2023-05-05T02:20:10.948Z,17.23
2023-05-05T02:21:10.907Z,17.23
2023-05-05T02:22:10.844Z,17.25
2023-05-05T02:23:10.788Z,17.18
2023-05-05T02:24:31.726Z,17.25
2023-05-05T02:25:10.684Z,17.23
2023-05-05T02:26:10.628Z,17.25
2023-05-05T02:27:10.580Z,17.22
2023-05-05T02:28:10.579Z,17.23
2023-05-05T02:29:10.476Z,17.23
2023-05-05T02:30:31.411Z,17.15
2023-05-05T02:31:10.386Z,17.25
2023-05-05T02:32:10.310Z,17.29
2023-05-05T02:33:10.268Z,17.15
2023-05-05T02:34:10.207Z,17.23
2023-05-05T02:35:10.159Z,17.22
2023-05-05T02:36:31.091Z,17.22
2023-05-05T02:37:10.049Z,17.20
2023-05-05T02:38:09.991Z,17.20
2023-05-05T02:39:09.943Z,17.20
2023-05-05T02:40:10.055Z,17.25
2023-05-05T02:41:09.838Z,17.18
2023-05-05T02:42:30.781Z,17.20
2023-05-05T02:43:09.764Z,17.20
2023-05-05T02:44:09.689Z,17.20
2023-05-05T02:45:09.653Z,17.23
2023-05-05T02:46:09.589Z,17.15
2023-05-05T02:47:09.529Z,17.18
2023-05-05T02:48:30.459Z,17.13
2023-05-05T02:49:09.411Z,17.17
2023-05-05T02:50:09.655Z,17.17
2023-05-05T02:51:09.313Z,17.11
2023-05-05T02:52:09.254Z,17.18
2023-05-05T02:53:09.203Z,17.15
2023-05-05T02:54:30.141Z,17.15
2023-05-05T02:55:09.092Z,17.14
2023-05-05T02:56:09.046Z,17.22
2023-05-05T02:57:08.992Z,17.15
2023-05-05T02:58:08.931Z,17.13
2023-05-05T02:59:08.880Z,17.10
2023-05-05T03:00:29.829Z,17.18
2023-05-05T03:01:08.819Z,17.13
2023-05-05T03:02:08.725Z,17.14
2023-05-05T03:03:08.750Z,17.11
2023-05-05T03:04:08.623Z,17.14
2023-05-05T03:05:08.563Z,17.13
2023-05-05T03:06:29.503Z,17.11
2023-05-05T03:07:08.462Z,17.15
2023-05-05T03:08:08.410Z,17.14
2023-05-05T03:09:08.347Z,17.06
2023-05-05T03:10:08.529Z,17.15
2023-05-05T03:11:12.868Z,17.13
2023-05-05T03:12:29.197Z,17.14
2023-05-05T03:13:08.229Z,17.11
2023-05-05T03:14:08.086Z,17.14
2023-05-05T03:15:08.033Z,17.13
2023-05-05T03:16:08.052Z,17.11
2023-05-05T03:17:07.929Z,17.10
2023-05-05T03:18:31.856Z,17.15
2023-05-05T03:19:07.828Z,17.00
2023-05-05T03:20:07.960Z,17.10
2023-05-05T03:21:07.720Z,17.07
2023-05-05T03:22:07.661Z,17.07
2023-05-05T03:23:07.619Z,17.15
2023-05-05T03:24:28.573Z,17.03
2023-05-05T03:25:07.525Z,17.07
2023-05-05T03:26:07.454Z,17.06
2023-05-05T03:27:07.395Z,17.14
2023-05-05T03:28:07.344Z,17.03
2023-05-05T03:29:07.293Z,17.03
2023-05-05T03:30:28.234Z,17.00
2023-05-05T03:31:07.185Z,17.00
2023-05-05T03:32:07.262Z,16.96
2023-05-05T03:33:07.097Z,17.03
2023-05-05T03:34:07.028Z,16.98
2023-05-05T03:35:06.968Z,16.96
2023-05-05T03:36:29.411Z,16.99
2023-05-05T03:37:06.866Z,17.00
2023-05-05T03:38:06.821Z,16.98
2023-05-05T03:39:06.773Z,16.93
2023-05-05T03:40:06.978Z,17.04
2023-05-05T03:41:06.659Z,17.00
2023-05-05T03:42:27.602Z,17.03
2023-05-05T03:43:06.549Z,16.99
2023-05-05T03:44:06.592Z,17.00
2023-05-05T03:45:06.441Z,16.99
2023-05-05T03:46:06.422Z,16.96
2023-05-05T03:47:06.338Z,17.03
2023-05-05T03:48:27.292Z,17.08
2023-05-05T03:49:06.227Z,17.00
2023-05-05T03:50:06.303Z,16.98
2023-05-05T03:51:06.133Z,16.96
2023-05-05T03:52:06.073Z,17.00
2023-05-05T03:53:06.022Z,16.95
2023-05-05T03:54:26.956Z,16.95
2023-05-05T03:55:05.916Z,16.92
2023-05-05T03:56:05.865Z,16.90
2023-05-05T03:57:05.821Z,16.98
2023-05-05T03:58:05.754Z,16.92
2023-05-05T03:59:05.705Z,16.98
2023-05-05T04:00:26.643Z,16.92
2023-05-05T04:01:05.592Z,16.92
2023-05-05T04:02:05.572Z,16.98
2023-05-05T04:03:05.711Z,16.90
2023-05-05T04:04:05.482Z,16.90
2023-05-05T04:05:05.385Z,16.99
2023-05-05T04:06:26.333Z,16.95
2023-05-05T04:07:05.277Z,16.92
2023-05-05T04:08:05.232Z,16.88
2023-05-05T04:09:05.172Z,16.95
2023-05-05T04:10:05.191Z,16.92
2023-05-05T04:11:05.068Z,16.93
2023-05-05T04:12:26.012Z,16.96
2023-05-05T04:13:04.978Z,16.92
2023-05-05T04:14:04.903Z,16.93
2023-05-05T04:15:04.856Z,16.92
2023-05-05T04:16:04.849Z,16.98
2023-05-05T04:17:04.748Z,16.92
2023-05-05T04:18:25.684Z,16.92
2023-05-05T04:19:04.649Z,16.86
2023-05-05T04:20:04.621Z,16.89
2023-05-05T04:21:04.543Z,16.88
2023-05-05T04:22:04.489Z,16.99
2023-05-05T04:23:04.435Z,16.86
2023-05-05T04:24:25.373Z,16.85
2023-05-05T04:25:04.323Z,16.86
2023-05-05T04:26:04.293Z,16.85
2023-05-05T04:27:04.216Z,16.86
2023-05-05T04:28:04.169Z,16.83
2023-05-05T04:29:04.112Z,16.92
2023-05-05T04:30:25.048Z,16.89
2023-05-05T04:31:04.099Z,16.90
2023-05-05T04:32:03.955Z,16.80
2023-05-05T04:33:03.926Z,16.88
2023-05-05T04:34:03.842Z,16.81
2023-05-05T04:35:03.787Z,16.77
2023-05-05T04:36:24.732Z,16.90
2023-05-05T04:37:03.684Z,16.89
2023-05-05T04:38:03.644Z,16.86
2023-05-05T04:39:03.653Z,16.89
2023-05-05T04:40:03.537Z,16.77
2023-05-05T04:41:03.516Z,16.83
2023-05-05T04:42:24.408Z,16.80
2023-05-05T04:43:03.364Z,16.83
2023-05-05T04:44:03.315Z,16.78
2023-05-05T04:45:03.258Z,16.83
2023-05-05T04:46:03.215Z,16.86
2023-05-05T04:47:03.153Z,16.75
2023-05-05T04:48:24.090Z,16.83
2023-05-05T04:49:03.053Z,16.85
2023-05-05T04:50:03.008Z,16.74
2023-05-05T04:51:02.943Z,16.77
2023-05-05T04:52:02.896Z,16.77
2023-05-05T04:53:02.829Z,16.81
2023-05-05T04:54:23.789Z,16.83
2023-05-05T04:55:02.736Z,16.85
2023-05-05T04:56:02.680Z,16.74
2023-05-05T04:57:02.622Z,16.83
2023-05-05T04:58:02.569Z,16.75
2023-05-05T04:59:02.509Z,16.75
2023-05-05T05:00:23.455Z,16.80
2023-05-05T05:01:02.404Z,16.73
2023-05-05T05:02:02.380Z,16.77
2023-05-05T05:03:02.401Z,16.75
2023-05-05T05:04:02.336Z,16.75
2023-05-05T05:05:02.190Z,16.80
2023-05-05T05:06:23.133Z,16.80
2023-05-05T05:07:02.092Z,16.78
2023-05-05T05:08:02.076Z,16.77
2023-05-05T05:09:01.990Z,16.78
2023-05-05T05:10:01.931Z,16.75
2023-05-05T05:11:01.883Z,16.78
2023-05-05T05:12:22.822Z,16.74
2023-05-05T05:13:01.802Z,16.75
2023-05-05T05:14:01.721Z,16.77
2023-05-05T05:15:01.675Z,16.70
2023-05-05T05:16:01.638Z,16.78
2023-05-05T05:17:01.556Z,16.73
2023-05-05T05:18:22.491Z,16.75
2023-05-05T05:19:01.894Z,16.75
2023-05-05T05:20:01.394Z,16.60
2023-05-05T05:21:01.344Z,16.70
2023-05-05T05:22:01.290Z,16.75
2023-05-05T05:23:01.239Z,16.75
2023-05-05T05:24:22.190Z,16.75
2023-05-05T05:25:01.153Z,16.70
2023-05-05T05:26:01.076Z,16.71
2023-05-05T05:27:01.039Z,16.74
2023-05-05T05:28:08.763Z,16.70
2023-05-05T05:29:00.917Z,16.77
2023-05-05T05:30:21.853Z,16.75
2023-05-05T05:31:00.806Z,16.77
2023-05-05T05:32:00.784Z,16.70
2023-05-05T05:33:00.728Z,16.71
2023-05-05T05:34:00.653Z,16.74
2023-05-05T05:35:00.597Z,16.74
2023-05-05T05:36:21.538Z,16.70
2023-05-05T05:37:00.489Z,16.70
2023-05-05T05:38:00.437Z,16.77
2023-05-05T05:39:00.381Z,16.68
2023-05-05T05:40:00.338Z,16.71
2023-05-05T05:41:00.277Z,16.73
2023-05-05T05:42:21.224Z,16.70
2023-05-05T05:43:00.169Z,16.70
2023-05-05T05:44:00.158Z,16.65
2023-05-05T05:45:00.061Z,16.63
2023-05-05T05:46:00.035Z,16.73
2023-05-05T05:46:59.960Z,16.65
2023-05-05T05:48:20.908Z,16.77
2023-05-05T05:48:59.848Z,16.70
2023-05-05T05:49:59.803Z,16.74
2023-05-05T05:50:59.742Z,16.73
2023-05-05T05:51:59.682Z,16.75
2023-05-05T05:52:59.638Z,16.74
2023-05-05T05:54:20.570Z,16.70
2023-05-05T05:54:59.530Z,16.73
2023-05-05T05:55:59.484Z,16.70
2023-05-05T05:56:59.418Z,16.77
2023-05-05T05:57:59.369Z,16.71
2023-05-05T05:58:59.320Z,16.70
2023-05-05T06:00:20.264Z,16.67
2023-05-05T06:00:59.208Z,16.75
2023-05-05T06:01:59.171Z,16.77
2023-05-05T06:02:59.227Z,16.70
2023-05-05T06:03:59.143Z,16.74
2023-05-05T06:04:58.989Z,16.75
2023-05-05T06:06:19.930Z,16.71
2023-05-05T06:06:58.882Z,16.77
2023-05-05T06:07:58.833Z,16.74
2023-05-05T06:08:58.777Z,16.77
2023-05-05T06:09:59.292Z,16.80
2023-05-05T06:10:58.676Z,16.75
2023-05-05T06:12:19.646Z,16.77
2023-05-05T06:12:58.595Z,16.77
2023-05-05T06:13:58.516Z,16.77
2023-05-05T06:14:58.464Z,16.77
2023-05-05T06:15:58.461Z,16.78
2023-05-05T06:16:58.354Z,16.73
2023-05-05T06:18:19.333Z,16.77
2023-05-05T06:18:58.253Z,16.77
2023-05-05T06:19:58.188Z,16.78
2023-05-05T06:20:58.148Z,16.74
2023-05-05T06:21:58.089Z,16.77
2023-05-05T06:22:58.032Z,16.77
2023-05-05T06:24:18.967Z,16.71
2023-05-05T06:24:57.927Z,16.75
2023-05-05T06:25:57.876Z,16.71
2023-05-05T06:26:57.816Z,16.80
2023-05-05T06:27:57.771Z,16.75
2023-05-05T06:28:57.711Z,16.74
2023-05-05T06:30:18.657Z,16.73
2023-05-05T06:30:57.662Z,16.80
2023-05-05T06:31:57.550Z,16.81
2023-05-05T06:32:57.532Z,16.75
2023-05-05T06:33:57.445Z,16.81
2023-05-05T06:34:57.405Z,16.78
2023-05-05T06:36:18.361Z,16.77
2023-05-05T06:36:57.288Z,16.83
2023-05-05T06:37:57.247Z,16.77
2023-05-05T06:38:57.179Z,16.86
2023-05-05T06:39:57.150Z,16.88
2023-05-05T06:40:57.074Z,16.81
2023-05-05T06:42:18.023Z,16.75
2023-05-05T06:42:56.967Z,16.86
2023-05-05T06:43:56.918Z,16.77
2023-05-05T06:44:56.868Z,16.77
2023-05-05T06:45:56.808Z,16.85
2023-05-05T06:46:56.786Z,16.81
2023-05-05T06:48:17.693Z,16.74
2023-05-05T06:48:56.650Z,16.83
2023-05-05T06:49:56.601Z,16.86
2023-05-05T06:50:56.543Z,16.77
2023-05-05T06:51:56.492Z,16.88
2023-05-05T06:52:56.430Z,16.89
2023-05-05T06:54:17.373Z,16.77
2023-05-05T06:54:56.351Z,16.85
2023-05-05T06:55:56.278Z,16.90
2023-05-05T06:56:58.194Z,16.88
2023-05-05T06:57:56.174Z,16.89
2023-05-05T06:58:56.118Z,16.93
2023-05-05T07:00:17.139Z,16.93
2023-05-05T07:00:56.058Z,16.95
2023-05-05T07:01:56.563Z,16.85
2023-05-05T07:02:55.942Z,16.86
2023-05-05T07:03:55.907Z,16.89
2023-05-05T07:04:55.790Z,16.90
2023-05-05T07:06:16.734Z,16.86
2023-05-05T07:06:55.701Z,16.86
2023-05-05T07:07:55.637Z,16.89
2023-05-05T07:08:55.591Z,16.92
2023-05-05T07:09:55.546Z,16.92
2023-05-05T07:10:55.482Z,16.88
2023-05-05T07:12:16.423Z,16.95
2023-05-05T07:12:55.425Z,16.98
2023-05-05T07:13:55.330Z,16.92
2023-05-05T07:14:55.266Z,16.89
2023-05-05T07:15:55.349Z,16.86
2023-05-05T07:16:55.186Z,16.88
2023-05-05T07:18:16.100Z,16.89
2023-05-05T07:18:55.052Z,16.92
2023-05-05T07:19:55.023Z,16.96
2023-05-05T07:20:54.947Z,16.92
2023-05-05T07:21:55.102Z,16.92
2023-05-05T07:22:54.852Z,16.90
2023-05-05T07:24:15.775Z,16.92
2023-05-05T07:24:54.734Z,16.99
2023-05-05T07:25:54.682Z,17.03
2023-05-05T07:26:54.632Z,16.98
2023-05-05T07:27:54.583Z,17.07
2023-05-05T07:28:54.521Z,16.96
2023-05-05T07:30:17.576Z,17.00
2023-05-05T07:30:54.422Z,16.95
2023-05-05T07:31:54.562Z,16.98
2023-05-05T07:32:54.357Z,16.99
2023-05-05T07:33:54.268Z,17.03
2023-05-05T07:34:54.207Z,17.03
2023-05-05T07:36:15.132Z,17.00
2023-05-05T07:36:54.094Z,16.96
2023-05-05T07:37:54.039Z,16.99
2023-05-05T07:38:53.992Z,16.98
2023-05-05T07:39:53.938Z,17.04
2023-05-05T07:40:53.891Z,17.00
2023-05-05T07:42:14.817Z,16.96
2023-05-05T07:42:53.794Z,17.00
2023-05-05T07:43:53.719Z,17.07
2023-05-05T07:44:53.661Z,17.10
2023-05-05T07:45:53.621Z,17.14
2023-05-05T07:46:53.561Z,17.08
2023-05-05T07:48:14.588Z,17.08
2023-05-05T07:48:53.453Z,17.10
2023-05-05T07:49:53.401Z,17.11
2023-05-05T07:50:53.350Z,17.08
2023-05-05T07:51:53.305Z,17.06
2023-05-05T07:53:02.137Z,17.06
2023-05-05T07:54:14.215Z,17.08
2023-05-05T07:54:53.137Z,17.15
2023-05-05T07:55:53.082Z,17.15
2023-05-05T07:56:53.028Z,17.18
2023-05-05T07:57:52.973Z,17.13
2023-05-05T07:58:52.925Z,17.14
2023-05-05T08:00:13.882Z,17.15
2023-05-05T08:00:52.816Z,17.13
2023-05-05T08:01:54.845Z,17.14
2023-05-05T08:02:52.797Z,17.13
2023-05-05T08:03:52.799Z,17.18
2023-05-05T08:04:52.620Z,17.18
2023-05-05T08:06:13.541Z,17.15
2023-05-05T08:06:52.499Z,17.13
2023-05-05T08:07:52.444Z,17.13
2023-05-05T08:08:52.444Z,17.13
2023-05-05T08:09:52.344Z,17.11
2023-05-05T08:10:52.285Z,17.13
2023-05-05T08:12:13.224Z,17.17
2023-05-05T08:12:52.219Z,17.18
2023-05-05T08:13:52.120Z,17.20
2023-05-05T08:14:52.074Z,17.20
2023-05-05T08:15:52.017Z,17.18
2023-05-05T08:16:51.971Z,17.13
2023-05-05T08:18:12.996Z,17.13
2023-05-05T08:18:51.868Z,17.18
2023-05-05T08:19:51.998Z,17.18
2023-05-05T08:20:51.752Z,17.20
2023-05-05T08:21:51.714Z,17.20
2023-05-05T08:22:51.651Z,17.22
2023-05-05T08:24:12.586Z,17.18
2023-05-05T08:24:51.560Z,17.18
2023-05-05T08:25:51.492Z,17.22
2023-05-05T08:26:51.439Z,17.18
2023-05-05T08:27:51.381Z,17.20
2023-05-05T08:28:51.332Z,17.22
2023-05-05T08:30:12.283Z,17.18
2023-05-05T08:30:51.224Z,17.28
2023-05-05T08:31:51.196Z,17.25
2023-05-05T08:32:51.142Z,17.22
2023-05-05T08:33:51.065Z,17.22
2023-05-05T08:34:51.017Z,17.23
2023-05-05T08:36:12.033Z,17.23
2023-05-05T08:36:50.908Z,17.23
2023-05-05T08:37:50.852Z,17.25
2023-05-05T08:38:50.799Z,17.22
2023-05-05T08:39:50.746Z,17.28
2023-05-05T08:40:50.696Z,17.25
2023-05-05T08:42:12.378Z,17.25
2023-05-05T08:42:50.591Z,17.26
2023-05-05T08:43:50.578Z,17.23
2023-05-05T08:44:50.481Z,17.28
2023-05-05T08:45:50.428Z,17.17
2023-05-05T08:46:50.394Z,17.20
2023-05-05T08:48:11.350Z,17.22
2023-05-05T08:48:50.268Z,17.25
2023-05-05T08:49:50.213Z,17.28
2023-05-05T08:50:50.159Z,17.25
2023-05-05T08:51:50.196Z,17.18
2023-05-05T08:52:51.392Z,17.22
2023-05-05T08:54:10.987Z,17.26
2023-05-05T08:54:49.944Z,17.18
2023-05-05T08:55:49.904Z,17.26
2023-05-05T08:56:49.840Z,17.26
2023-05-05T08:57:49.789Z,17.23
2023-05-05T08:58:49.738Z,17.23
2023-05-05T09:00:10.671Z,17.26
2023-05-05T09:00:49.681Z,17.30
2023-05-05T09:01:49.573Z,17.23
2023-05-05T09:02:49.576Z,17.26
2023-05-05T09:03:49.801Z,17.30
2023-05-05T09:04:49.418Z,17.26
2023-05-05T09:06:10.358Z,17.23
2023-05-05T09:06:49.315Z,17.26
2023-05-05T09:07:49.336Z,17.32
2023-05-05T09:08:49.206Z,17.29
2023-05-05T09:09:49.150Z,17.33
2023-05-05T09:10:49.125Z,17.30
2023-05-05T09:12:10.041Z,17.33
2023-05-05T09:12:49.018Z,17.30
2023-05-05T09:13:48.942Z,17.32
2023-05-05T09:14:48.885Z,17.30
2023-05-05T09:15:48.833Z,17.33
2023-05-05T09:16:48.840Z,17.32
2023-05-05T09:18:09.750Z,17.32
2023-05-05T09:18:48.672Z,17.35
2023-05-05T09:19:48.621Z,17.30
2023-05-05T09:20:48.617Z,17.36
2023-05-05T09:21:48.518Z,17.32
2023-05-05T09:22:48.457Z,17.33
2023-05-05T09:24:09.714Z,17.32
2023-05-05T09:24:48.356Z,17.35
2023-05-05T09:25:48.304Z,17.30
2023-05-05T09:26:48.251Z,17.36
2023-05-05T09:27:48.201Z,17.41
2023-05-05T09:28:48.150Z,17.38
2023-05-05T09:30:09.087Z,17.38
2023-05-05T09:30:48.073Z,17.36
2023-05-05T09:31:47.986Z,17.38
2023-05-05T09:32:47.987Z,17.36
2023-05-05T09:33:47.882Z,17.35
2023-05-05T09:34:47.826Z,17.46
2023-05-05T09:36:08.782Z,17.35
2023-05-05T09:36:47.914Z,17.41
2023-05-05T09:37:47.669Z,17.38
2023-05-05T09:38:47.624Z,17.36
2023-05-05T09:39:47.597Z,17.36
2023-05-05T09:40:47.515Z,17.29
2023-05-05T09:42:08.450Z,17.35
2023-05-05T09:42:47.483Z,17.41
2023-05-05T09:43:53.972Z,17.41
2023-05-05T09:44:47.304Z,17.40
2023-05-05T09:45:47.249Z,17.50
2023-05-05T09:46:47.282Z,17.48
2023-05-05T09:48:08.179Z,17.44
2023-05-05T09:48:47.090Z,17.50
2023-05-05T09:49:47.038Z,17.48
2023-05-05T09:50:46.993Z,17.46
2023-05-05T09:51:46.929Z,17.47
2023-05-05T09:52:48.094Z,17.50
2023-05-05T09:54:07.809Z,17.50
2023-05-05T09:54:46.769Z,17.48
2023-05-05T09:55:46.798Z,17.50
2023-05-05T09:56:46.672Z,17.46
2023-05-05T09:57:46.608Z,17.48
2023-05-05T09:58:46.599Z,17.50
2023-05-05T10:00:07.728Z,17.44
2023-05-05T10:00:46.450Z,17.48
2023-05-05T10:01:46.463Z,17.55
2023-05-05T10:02:46.382Z,17.51
2023-05-05T10:03:46.292Z,17.47
2023-05-05T10:04:46.260Z,17.53
2023-05-05T10:06:07.181Z,17.57
2023-05-05T10:06:46.133Z,17.53
2023-05-05T10:07:46.088Z,17.55
2023-05-05T10:08:46.025Z,17.55
2023-05-05T10:09:45.973Z,17.62
2023-05-05T10:10:45.928Z,17.50
2023-05-05T10:12:06.952Z,17.59
2023-05-05T10:12:45.859Z,17.62
2023-05-05T10:13:45.757Z,17.63
2023-05-05T10:14:45.709Z,17.54
2023-05-05T10:15:45.701Z,17.51
2023-05-05T10:16:45.794Z,17.51
2023-05-05T10:18:08.247Z,17.50
2023-05-05T10:18:45.494Z,17.57
2023-05-05T10:19:45.438Z,17.62
2023-05-05T10:20:45.391Z,17.57
2023-05-05T10:21:45.337Z,17.55
2023-05-05T10:22:45.288Z,17.57
2023-05-05T10:24:06.230Z,17.53
2023-05-05T10:24:45.179Z,17.55
2023-05-05T10:25:45.123Z,17.62
2023-05-05T10:26:45.076Z,17.62
2023-05-05T10:27:45.027Z,17.59
2023-05-05T10:28:44.983Z,17.67
2023-05-05T10:30:06.087Z,17.62
2023-05-05T10:30:44.865Z,17.63
2023-05-05T10:31:44.842Z,17.76
2023-05-05T10:33:44.745Z,17.63
2023-05-05T10:34:44.713Z,17.66
2023-05-05T10:36:05.603Z,17.71
2023-05-05T10:36:44.546Z,17.74
2023-05-05T10:37:44.509Z,17.78
2023-05-05T10:38:44.445Z,17.69
2023-05-05T10:39:44.387Z,17.74
2023-05-05T10:40:44.346Z,17.73
2023-05-05T10:42:05.281Z,17.64
2023-05-05T10:42:44.256Z,17.73
2023-05-05T10:43:44.189Z,17.73
2023-05-05T10:44:44.137Z,17.64
2023-05-05T10:45:44.225Z,17.67
2023-05-05T10:46:44.223Z,17.73
2023-05-05T10:48:05.028Z,17.70
2023-05-05T10:48:43.988Z,17.71
2023-05-05T10:49:43.862Z,17.76
2023-05-05T10:50:43.816Z,17.71
2023-05-05T10:51:43.761Z,17.76
2023-05-05T10:52:43.708Z,17.71
2023-05-05T10:54:04.676Z,17.74
2023-05-05T10:54:43.603Z,17.76
2023-05-05T10:55:43.550Z,17.73
2023-05-05T10:56:43.511Z,17.76
2023-05-05T10:57:43.448Z,17.82
2023-05-05T10:58:55.524Z,17.74
2023-05-05T11:00:04.574Z,17.74
2023-05-05T11:00:43.380Z,17.79
2023-05-05T11:01:43.231Z,17.79
2023-05-05T11:02:43.242Z,17.78
2023-05-05T11:03:43.156Z,17.74
2023-05-05T11:04:43.076Z,17.74
2023-05-05T11:06:04.017Z,17.76
2023-05-05T11:06:42.971Z,17.76
2023-05-05T11:07:42.911Z,17.76
2023-05-05T11:08:42.867Z,17.78
2023-05-05T11:09:42.808Z,17.79
2023-05-05T11:10:42.764Z,17.74
2023-05-05T11:12:03.696Z,17.78
2023-05-05T11:12:42.681Z,17.79
2023-05-05T11:13:42.606Z,17.81
2023-05-05T11:14:42.555Z,17.78
2023-05-05T11:15:42.514Z,17.78
2023-05-05T11:16:42.499Z,17.79
2023-05-05T11:18:07.033Z,17.82
2023-05-05T11:18:42.333Z,17.79
2023-05-05T11:19:42.305Z,17.82
2023-05-05T11:20:42.227Z,17.82
2023-05-05T11:21:42.177Z,17.79
2023-05-05T11:22:42.125Z,17.76
2023-05-05T11:24:03.059Z,17.85
2023-05-05T11:24:42.021Z,17.85
2023-05-05T11:25:41.991Z,17.84
2023-05-05T11:26:41.918Z,17.78
2023-05-05T11:27:41.869Z,17.81
2023-05-05T11:28:41.807Z,17.84
2023-05-05T11:30:02.745Z,17.82
2023-05-05T11:30:41.718Z,17.71
2023-05-05T11:31:41.778Z,17.82
2023-05-05T11:32:41.622Z,17.76
2023-05-05T11:33:41.549Z,17.78
2023-05-05T11:34:41.507Z,17.79
2023-05-05T11:36:05.846Z,17.84
2023-05-05T11:36:41.394Z,17.78
2023-05-05T11:37:41.339Z,17.79
2023-05-05T11:38:41.284Z,17.84
2023-05-05T11:39:41.236Z,17.81
2023-05-05T11:40:41.177Z,17.85
2023-05-05T11:42:06.581Z,17.79
2023-05-05T11:42:41.071Z,17.87
2023-05-05T11:43:41.020Z,17.76
2023-05-05T11:44:40.970Z,17.81
2023-05-05T11:45:40.912Z,17.79
2023-05-05T11:46:41.038Z,17.81
2023-05-05T11:48:01.841Z,17.84
2023-05-05T11:48:40.755Z,17.84
2023-05-05T11:49:40.701Z,17.82
2023-05-05T11:50:40.652Z,17.84
2023-05-05T11:51:40.598Z,17.79
2023-05-05T11:52:40.546Z,17.81
2023-05-05T11:54:01.486Z,17.82
2023-05-05T11:54:40.449Z,17.85
2023-05-05T11:55:40.387Z,17.89
2023-05-05T11:56:40.329Z,17.85
2023-05-05T11:57:40.278Z,17.85
2023-05-05T11:58:40.232Z,17.94
2023-05-05T12:00:01.225Z,17.85
2023-05-05T12:00:40.125Z,17.82
2023-05-05T12:01:40.093Z,17.84
2023-05-05T12:02:40.099Z,17.88
2023-05-05T12:03:40.106Z,17.81
2023-05-05T12:04:39.965Z,17.78
2023-05-05T12:06:00.870Z,17.87
2023-05-05T12:06:39.805Z,17.82
2023-05-05T12:07:39.753Z,17.84
2023-05-05T12:08:39.705Z,17.82
2023-05-05T12:09:39.649Z,17.94
2023-05-05T12:10:39.606Z,17.84
2023-05-05T12:12:00.531Z,17.91
2023-05-05T12:12:39.536Z,17.94
2023-05-05T12:13:39.437Z,17.87
2023-05-05T12:14:39.393Z,17.84
2023-05-05T12:15:39.335Z,17.81
2023-05-05T12:16:39.336Z,17.87
2023-05-05T12:18:02.632Z,17.87
2023-05-05T12:18:39.182Z,17.87
2023-05-05T12:19:39.336Z,17.84
2023-05-05T12:20:39.066Z,17.82
2023-05-05T12:21:39.021Z,17.84
2023-05-05T12:22:38.980Z,17.85
2023-05-05T12:23:59.914Z,17.89
2023-05-05T12:24:38.862Z,17.88
2023-05-05T12:25:38.805Z,17.88
2023-05-05T12:26:38.756Z,17.92
2023-05-05T12:27:38.950Z,17.89
2023-05-05T12:28:38.656Z,17.88
2023-05-05T12:29:59.586Z,17.94
2023-05-05T12:30:38.618Z,17.97
2023-05-05T12:31:38.542Z,17.94
2023-05-05T12:32:38.453Z,17.91
2023-05-05T12:33:38.384Z,17.87
2023-05-05T12:34:38.335Z,17.91
2023-05-05T12:35:59.291Z,18.04
2023-05-05T12:36:38.227Z,17.88
2023-05-05T12:37:38.189Z,17.89
2023-05-05T12:38:38.126Z,17.88
2023-05-05T12:39:38.080Z,17.91
2023-05-05T12:40:38.029Z,17.92
2023-05-05T12:41:58.959Z,17.97
2023-05-05T12:42:37.917Z,18.02
2023-05-05T12:43:37.865Z,18.03
2023-05-05T12:44:37.812Z,18.02
2023-05-05T12:45:37.781Z,18.00
2023-05-05T12:46:37.765Z,18.09
2023-05-05T12:47:58.670Z,18.06
2023-05-05T12:48:37.609Z,18.12
2023-05-05T12:49:37.567Z,18.12
2023-05-05T12:50:37.492Z,18.17
2023-05-05T12:51:37.456Z,18.09
2023-05-05T12:52:37.391Z,18.19